createdAt,value
2023-09-06T00:00:57.622Z,99.99
2023-09-06T00:01:57.663Z,99.99
2023-09-06T00:02:57.600Z,99.99
2023-09-06T00:03:57.820Z,99.99
2023-09-06T00:04:57.703Z,99.99
2023-09-06T00:05:57.550Z,99.99
2023-09-06T00:06:57.649Z,99.99
2023-09-06T00:07:57.543Z,99.99
2023-09-06T00:08:57.550Z,99.99
2023-09-06T00:09:57.588Z,99.99
2023-09-06T00:10:57.508Z,99.99
2023-09-06T00:11:57.501Z,99.99
2023-09-06T00:12:57.532Z,99.99
2023-09-06T00:13:57.508Z,99.99
2023-09-06T00:14:57.478Z,99.99
2023-09-06T00:15:57.533Z,99.99
2023-09-06T00:16:57.577Z,99.99
2023-09-06T00:17:57.517Z,99.99
2023-09-06T00:18:57.501Z,99.99
2023-09-06T00:19:57.432Z,99.99
2023-09-06T00:20:57.441Z,99.99
2023-09-06T00:21:57.442Z,99.99
2023-09-06T00:22:57.441Z,99.99
2023-09-06T00:23:57.402Z,99.99
2023-09-06T00:24:57.434Z,99.99
2023-09-06T00:25:57.397Z,99.99
2023-09-06T00:26:57.379Z,99.99
2023-09-06T00:27:57.453Z,99.99
2023-09-06T00:28:57.370Z,99.99
2023-09-06T00:29:57.356Z,99.99
2023-09-06T00:30:57.415Z,99.99
2023-09-06T00:31:57.389Z,99.99
2023-09-06T00:32:57.383Z,99.99
2023-09-06T00:33:57.362Z,99.99
2023-09-06T00:34:57.309Z,99.99
2023-09-06T00:35:57.322Z,99.99
2023-09-06T00:36:57.320Z,99.99
2023-09-06T00:37:57.320Z,99.99
2023-09-06T00:38:57.278Z,99.99
2023-09-06T00:39:57.338Z,99.99
2023-09-06T00:40:57.275Z,99.99
2023-09-06T00:41:57.262Z,99.99
2023-09-06T00:42:57.285Z,99.99
2023-09-06T00:43:57.274Z,99.99
2023-09-06T00:44:57.240Z,99.99
2023-09-06T00:45:57.250Z,99.99
2023-09-06T00:46:57.336Z,99.99
2023-09-06T00:47:57.248Z,99.99
2023-09-06T00:48:57.224Z,99.99
2023-09-06T00:49:57.195Z,99.99
2023-09-06T00:50:57.185Z,99.99
2023-09-06T00:51:57.210Z,99.99
2023-09-06T00:52:57.201Z,99.99
2023-09-06T00:53:57.162Z,99.99
2023-09-06T00:54:57.220Z,99.99
2023-09-06T00:55:57.148Z,99.99
2023-09-06T00:56:57.170Z,99.99
2023-09-06T00:57:57.228Z,99.99
2023-09-06T00:58:57.128Z,99.99
2023-09-06T00:59:57.113Z,99.99
2023-09-06T01:00:57.188Z,99.99
2023-09-06T01:01:57.241Z,99.99
2023-09-06T01:02:57.174Z,99.99
2023-09-06T01:03:57.155Z,99.99
2023-09-06T01:04:57.080Z,99.99
2023-09-06T01:05:57.067Z,99.99
2023-09-06T01:06:57.138Z,99.99
2023-09-06T01:07:57.054Z,99.99
2023-09-06T01:08:57.195Z,99.99
2023-09-06T01:09:57.071Z,99.99
2023-09-06T01:10:57.058Z,99.99
2023-09-06T01:11:57.048Z,99.99
2023-09-06T01:12:57.063Z,99.99
2023-09-06T01:13:57.004Z,99.99
2023-09-06T01:14:57.031Z,99.99
2023-09-06T01:15:57.098Z,99.99
2023-09-06T01:16:57.194Z,99.99
2023-09-06T01:17:57.013Z,99.99
2023-09-06T01:18:57.000Z,99.99
2023-09-06T01:19:56.968Z,99.99
2023-09-06T01:20:56.980Z,99.99
2023-09-06T01:21:57.008Z,99.99
2023-09-06T01:22:56.953Z,99.99
2023-09-06T01:23:56.925Z,99.99
2023-09-06T01:24:56.974Z,99.99
2023-09-06T01:25:56.937Z,99.99
2023-09-06T01:26:56.924Z,99.99
2023-09-06T01:27:56.966Z,99.99
2023-09-06T01:28:56.896Z,99.99
2023-09-06T01:29:56.900Z,99.99
2023-09-06T01:30:56.973Z,99.99
2023-09-06T01:31:57.001Z,99.99
2023-09-06T01:32:56.858Z,99.99
2023-09-06T01:33:56.873Z,99.99
2023-09-06T01:34:56.867Z,99.99
2023-09-06T01:35:56.833Z,99.99
2023-09-06T01:36:56.876Z,99.99
2023-09-06T01:37:56.818Z,99.99
2023-09-06T01:38:56.798Z,99.99
2023-09-06T01:39:57.858Z,99.99
2023-09-06T01:40:56.881Z,99.99
2023-09-06T01:41:56.795Z,99.99
2023-09-06T01:42:56.778Z,99.99
2023-09-06T01:43:56.796Z,99.99
2023-09-06T01:44:56.784Z,99.99
2023-09-06T01:45:56.797Z,99.99
2023-09-06T01:46:56.811Z,99.99
2023-09-06T01:47:56.795Z,99.99
2023-09-06T01:48:56.795Z,99.99
2023-09-06T01:49:56.725Z,99.99
2023-09-06T01:50:56.717Z,99.99
2023-09-06T01:51:56.745Z,99.99
2023-09-06T01:52:56.699Z,99.99
2023-09-06T01:53:56.717Z,99.99
2023-09-06T01:54:56.759Z,99.99
2023-09-06T01:55:56.678Z,99.99
2023-09-06T01:56:56.671Z,99.99
2023-09-06T01:57:56.731Z,99.99
2023-09-06T01:58:56.688Z,99.99
2023-09-06T01:59:56.661Z,99.99
2023-09-06T02:00:57.670Z,99.99
2023-09-06T02:01:56.670Z,99.99
2023-09-06T02:02:56.784Z,99.99
2023-09-06T02:03:56.843Z,99.99
2023-09-06T02:04:56.613Z,99.99
2023-09-06T02:05:56.600Z,99.99
2023-09-06T02:06:56.639Z,99.99
2023-09-06T02:07:56.616Z,99.99
2023-09-06T02:08:56.581Z,99.99
2023-09-06T02:09:56.604Z,99.99
2023-09-06T02:10:56.569Z,99.99
2023-09-06T02:11:56.583Z,99.99
2023-09-06T02:12:56.611Z,99.99
2023-09-06T02:13:56.546Z,99.99
2023-09-06T02:14:56.538Z,99.99
2023-09-06T02:15:56.588Z,99.99
2023-09-06T02:16:56.584Z,99.99
2023-09-06T02:17:56.562Z,99.99
2023-09-06T02:18:56.531Z,99.99
2023-09-06T02:19:56.503Z,99.99
2023-09-06T02:20:56.487Z,99.99
2023-09-06T02:21:56.564Z,99.99
2023-09-06T02:22:56.477Z,99.99
2023-09-06T02:23:56.470Z,99.99
2023-09-06T02:24:56.543Z,99.99
2023-09-06T02:25:56.458Z,99.99
2023-09-06T02:26:56.476Z,99.99
2023-09-06T02:27:56.468Z,99.99
2023-09-06T02:28:56.441Z,99.99
2023-09-06T02:29:56.436Z,99.99
2023-09-06T02:30:56.445Z,99.99
2023-09-06T02:31:56.547Z,99.99
2023-09-06T02:32:57.033Z,99.99
2023-09-06T02:33:56.414Z,99.99
2023-09-06T02:34:56.392Z,99.99
2023-09-06T02:35:56.406Z,99.99
2023-09-06T02:36:56.422Z,99.99
2023-09-06T02:37:56.365Z,99.99
2023-09-06T02:38:56.356Z,99.99
2023-09-06T02:39:56.352Z,99.99
2023-09-06T02:40:56.364Z,99.99
2023-09-06T02:41:56.333Z,99.99
2023-09-06T02:42:56.343Z,99.99
2023-09-06T02:43:56.320Z,99.99
2023-09-06T02:44:56.333Z,99.99
2023-09-06T02:45:56.364Z,99.99
2023-09-06T02:46:56.320Z,99.99
2023-09-06T02:47:56.302Z,99.99
2023-09-06T02:48:56.277Z,99.99
2023-09-06T02:49:56.297Z,99.99
2023-09-06T02:50:56.321Z,99.99
2023-09-06T02:51:56.256Z,99.99
2023-09-06T02:52:56.248Z,99.99
2023-09-06T02:53:56.238Z,99.99
2023-09-06T02:54:56.305Z,99.99
2023-09-06T02:55:56.233Z,99.99
2023-09-06T02:56:56.216Z,99.99
2023-09-06T02:57:56.226Z,99.99
2023-09-06T02:58:56.226Z,99.99
2023-09-06T02:59:56.223Z,99.99
2023-09-06T03:00:56.315Z,99.99
2023-09-06T03:01:56.198Z,99.99
2023-09-06T03:02:57.249Z,99.99
2023-09-06T03:03:56.245Z,99.99
2023-09-06T03:04:56.160Z,99.99
2023-09-06T03:05:56.144Z,99.99
2023-09-06T03:06:56.172Z,99.99
2023-09-06T03:07:56.158Z,99.99
2023-09-06T03:08:56.161Z,99.99
2023-09-06T03:09:56.154Z,99.99
2023-09-06T03:10:56.104Z,99.99
2023-09-06T03:11:56.104Z,99.99
2023-09-06T03:12:56.207Z,99.99
2023-09-06T03:13:56.106Z,99.99
2023-09-06T03:14:56.072Z,99.99
2023-09-06T03:15:56.100Z,99.99
2023-09-06T03:16:56.128Z,99.99
2023-09-06T03:17:56.109Z,99.99
2023-09-06T03:18:56.045Z,99.99
2023-09-06T03:19:56.032Z,99.99
2023-09-06T03:20:56.027Z,99.99
2023-09-06T03:21:56.019Z,99.99
2023-09-06T03:22:56.041Z,99.99
2023-09-06T03:23:56.001Z,99.99
2023-09-06T03:24:55.995Z,99.99
2023-09-06T03:25:56.515Z,99.99
2023-09-06T03:26:55.979Z,99.99
2023-09-06T03:27:55.999Z,99.99
2023-09-06T03:28:55.968Z,99.99
2023-09-06T03:29:55.955Z,99.99
2023-09-06T03:30:55.967Z,99.99
2023-09-06T03:31:56.054Z,99.99
2023-09-06T03:32:56.011Z,99.99
2023-09-06T03:33:55.922Z,99.99
2023-09-06T03:34:55.918Z,99.99
2023-09-06T03:35:55.997Z,99.99
2023-09-06T03:36:55.930Z,99.99
2023-09-06T03:37:56.007Z,99.99
2023-09-06T03:38:55.898Z,99.99
2023-09-06T03:39:55.881Z,99.99
2023-09-06T03:40:55.953Z,99.99
2023-09-06T03:41:55.894Z,99.99
2023-09-06T03:42:55.868Z,99.99
2023-09-06T03:43:55.859Z,99.99
2023-09-06T03:44:55.851Z,99.99
2023-09-06T03:45:55.869Z,99.99
2023-09-06T03:46:55.934Z,99.99
2023-09-06T03:47:56.032Z,99.99
2023-09-06T03:48:55.905Z,99.99
2023-09-06T03:49:55.808Z,99.99
2023-09-06T03:50:55.844Z,99.99
2023-09-06T03:51:55.798Z,99.99
2023-09-06T03:52:55.839Z,99.99
2023-09-06T03:53:55.769Z,99.99
2023-09-06T03:54:55.762Z,99.99
2023-09-06T03:55:55.803Z,99.99
2023-09-06T03:56:55.755Z,99.99
2023-09-06T03:57:55.748Z,99.99
2023-09-06T03:58:55.748Z,99.99
2023-09-06T03:59:55.753Z,99.99
2023-09-06T04:00:55.758Z,99.99
2023-09-06T04:01:55.793Z,99.99
2023-09-06T04:02:55.861Z,99.99
2023-09-06T04:03:55.830Z,99.99
2023-09-06T04:04:55.742Z,99.99
2023-09-06T04:05:55.688Z,99.99
2023-09-06T04:06:55.692Z,99.99
2023-09-06T04:07:55.733Z,99.99
2023-09-06T04:08:55.756Z,99.99
2023-09-06T04:09:55.683Z,99.99
2023-09-06T04:10:55.660Z,99.99
2023-09-06T04:11:55.640Z,99.99
2023-09-06T04:12:55.709Z,99.99
2023-09-06T04:13:55.625Z,99.99
2023-09-06T04:14:55.648Z,99.99
2023-09-06T04:15:55.616Z,99.99
2023-09-06T04:16:55.653Z,99.99
2023-09-06T04:17:55.693Z,99.99
2023-09-06T04:18:55.635Z,99.99
2023-09-06T04:19:56.254Z,99.99
2023-09-06T04:20:56.569Z,99.99
2023-09-06T04:21:55.559Z,99.99
2023-09-06T04:22:55.571Z,99.99
2023-09-06T04:23:55.577Z,99.99
2023-09-06T04:24:55.556Z,99.99
2023-09-06T04:25:56.574Z,99.99
2023-09-06T04:26:55.519Z,99.99
2023-09-06T04:27:55.520Z,99.99
2023-09-06T04:28:55.543Z,99.99
2023-09-06T04:29:55.506Z,99.99
2023-09-06T04:30:55.538Z,99.99
2023-09-06T04:31:55.523Z,99.99
2023-09-06T04:32:55.544Z,99.99
2023-09-06T04:33:55.486Z,99.99
2023-09-06T04:34:55.477Z,99.99
2023-09-06T04:35:55.461Z,99.99
2023-09-06T04:36:55.448Z,99.99
2023-09-06T04:37:55.479Z,99.99
2023-09-06T04:38:55.428Z,99.99
2023-09-06T04:39:55.425Z,99.99
2023-09-06T04:40:55.486Z,99.99
2023-09-06T04:41:55.403Z,99.99
2023-09-06T04:42:55.420Z,99.99
2023-09-06T04:43:55.450Z,99.99
2023-09-06T04:44:55.382Z,99.99
2023-09-06T04:45:55.372Z,99.99
2023-09-06T04:46:55.407Z,99.99
2023-09-06T04:47:55.409Z,99.99
2023-09-06T04:48:55.392Z,99.99
2023-09-06T04:49:55.339Z,99.99
2023-09-06T04:50:55.329Z,99.99
2023-09-06T04:51:55.358Z,99.99
2023-09-06T04:52:55.423Z,99.99
2023-09-06T04:53:55.322Z,99.99
2023-09-06T04:54:55.300Z,99.99
2023-09-06T04:55:55.295Z,99.99
2023-09-06T04:56:55.333Z,99.99
2023-09-06T04:57:55.285Z,99.99
2023-09-06T04:58:55.271Z,99.99
2023-09-06T04:59:55.272Z,99.99
2023-09-06T05:00:55.303Z,99.99
2023-09-06T05:01:55.270Z,99.99
2023-09-06T05:02:55.345Z,99.99
2023-09-06T05:03:55.338Z,99.99
2023-09-06T05:04:55.231Z,99.99
2023-09-06T05:05:55.292Z,99.99
2023-09-06T05:06:55.237Z,99.99
2023-09-06T05:07:55.202Z,99.99
2023-09-06T05:08:55.201Z,99.99
2023-09-06T05:09:55.190Z,99.99
2023-09-06T05:10:55.204Z,99.99
2023-09-06T05:11:55.177Z,99.99
2023-09-06T05:12:55.165Z,99.99
2023-09-06T05:13:55.194Z,99.99
2023-09-06T05:14:55.148Z,99.99
2023-09-06T05:15:55.163Z,99.99
2023-09-06T05:16:55.186Z,99.99
2023-09-06T05:17:55.163Z,99.99
2023-09-06T05:18:55.130Z,99.99
2023-09-06T05:19:55.131Z,99.99
2023-09-06T05:20:55.124Z,99.99
2023-09-06T05:21:55.093Z,99.99
2023-09-06T05:22:55.112Z,99.99
2023-09-06T05:23:55.076Z,99.99
2023-09-06T05:24:55.134Z,99.99
2023-09-06T05:25:55.066Z,99.99
2023-09-06T05:26:55.053Z,99.99
2023-09-06T05:27:55.128Z,99.99
2023-09-06T05:28:55.039Z,99.99
2023-09-06T05:29:55.063Z,99.99
2023-09-06T05:30:55.058Z,99.99
2023-09-06T05:31:55.064Z,99.99
2023-09-06T05:32:55.054Z,99.99
2023-09-06T05:33:55.040Z,99.99
2023-09-06T05:34:55.020Z,99.99
2023-09-06T05:35:54.984Z,99.99
2023-09-06T05:36:54.988Z,99.99
2023-09-06T05:37:55.022Z,99.99
2023-09-06T05:38:54.987Z,99.99
2023-09-06T05:39:54.947Z,99.99
2023-09-06T05:40:54.961Z,99.99
2023-09-06T05:41:54.940Z,99.99
2023-09-06T05:42:54.927Z,99.99
2023-09-06T05:43:54.961Z,99.99
2023-09-06T05:44:54.913Z,99.99
2023-09-06T05:45:54.957Z,99.99
2023-09-06T05:46:55.085Z,99.99
2023-09-06T05:47:55.135Z,99.99
2023-09-06T05:48:54.971Z,99.99
2023-09-06T05:49:54.992Z,99.99
2023-09-06T05:50:54.934Z,99.99
2023-09-06T05:51:54.981Z,99.99
2023-09-06T05:52:54.967Z,99.99
2023-09-06T05:53:54.925Z,99.99
2023-09-06T05:55:54.957Z,99.99
2023-09-06T05:56:54.825Z,99.99
2023-09-06T05:57:54.861Z,99.99
2023-09-06T05:58:54.825Z,99.99
2023-09-06T05:59:54.811Z,99.99
2023-09-06T06:00:54.803Z,99.99
2023-09-06T06:01:54.851Z,99.99
2023-09-06T06:02:54.880Z,99.99
2023-09-06T06:03:55.837Z,99.99
2023-09-06T06:04:54.825Z,99.99
2023-09-06T06:05:54.765Z,99.99
2023-09-06T06:06:54.777Z,99.99
2023-09-06T06:07:54.774Z,99.99
2023-09-06T06:08:54.786Z,99.99
2023-09-06T06:09:54.732Z,99.99
2023-09-06T06:10:54.743Z,99.99
2023-09-06T06:11:54.742Z,99.99
2023-09-06T06:12:54.709Z,99.99
2023-09-06T06:14:08.149Z,99.99
2023-09-06T06:14:56.693Z,99.96
2023-09-06T06:15:54.692Z,99.05
2023-09-06T06:16:54.724Z,99.55
2023-09-06T06:17:54.698Z,99.05
2023-09-06T06:18:54.669Z,98.24
2023-09-06T06:19:54.735Z,98.03
2023-09-06T06:20:54.677Z,98.34
2023-09-06T06:21:54.663Z,98.14
2023-09-06T06:22:54.630Z,98.29
2023-09-06T06:23:54.628Z,97.18
2023-09-06T06:24:54.673Z,97.69
2023-09-06T06:25:54.670Z,97.58
2023-09-06T06:26:54.601Z,97.44
2023-09-06T06:27:54.714Z,96.88
2023-09-06T06:28:54.728Z,96.88
2023-09-06T06:29:54.638Z,96.37
2023-09-06T06:30:54.602Z,97.54
2023-09-06T06:31:54.766Z,96.83
2023-09-06T06:32:54.624Z,96.58
2023-09-06T06:33:54.560Z,96.18
2023-09-06T06:34:54.582Z,96.03
2023-09-06T06:35:54.594Z,95.12
2023-09-06T06:36:54.518Z,94.51
2023-09-06T06:37:54.551Z,94.46
2023-09-06T06:38:54.508Z,95.53
2023-09-06T06:39:54.538Z,94.78
2023-09-06T06:40:54.561Z,93.87
2023-09-06T06:41:54.490Z,94.87
2023-09-06T06:42:54.483Z,93.92
2023-09-06T06:43:54.501Z,92.06
2023-09-06T06:44:54.483Z,91.67
2023-09-06T06:45:54.491Z,90.82
2023-09-06T06:46:54.484Z,89.77
2023-09-06T06:47:54.483Z,89.12
2023-09-06T06:48:55.438Z,88.48
2023-09-06T06:49:54.511Z,87.53
2023-09-06T06:50:54.503Z,87.63
2023-09-06T06:51:54.404Z,86.85
2023-09-06T06:52:54.477Z,85.44
2023-09-06T06:53:54.419Z,84.83
2023-09-06T06:54:54.410Z,86.79
2023-09-06T06:55:54.406Z,86.88
2023-09-06T06:56:54.386Z,86.34
2023-09-06T06:57:54.353Z,85.53
2023-09-06T06:58:54.429Z,86.85
2023-09-06T06:59:54.352Z,85.24
2023-09-06T07:00:54.430Z,85.33
2023-09-06T07:01:54.367Z,85.24
2023-09-06T07:02:54.366Z,85.28
2023-09-06T07:03:54.447Z,85.78
2023-09-06T07:04:56.259Z,86.38
2023-09-06T07:05:54.293Z,87.07
2023-09-06T07:06:54.297Z,88.22
2023-09-06T07:07:54.327Z,88.52
2023-09-06T07:08:54.279Z,88.02
2023-09-06T07:09:54.271Z,87.71
2023-09-06T07:10:54.294Z,87.69
2023-09-06T07:11:54.254Z,86.52
2023-09-06T07:12:54.270Z,87.23
2023-09-06T07:13:54.340Z,86.74
2023-09-06T07:14:54.241Z,86.00
2023-09-06T07:15:54.255Z,84.71
2023-09-06T07:16:54.387Z,81.73
2023-09-06T07:17:54.322Z,82.12
2023-09-06T07:18:54.204Z,81.42
2023-09-06T07:19:54.246Z,83.17
2023-09-06T07:20:54.193Z,84.59
2023-09-06T07:21:54.235Z,85.03
2023-09-06T07:22:54.195Z,84.75
2023-09-06T07:23:54.162Z,84.47
2023-09-06T07:24:54.167Z,83.53
2023-09-06T07:25:54.154Z,81.30
2023-09-06T07:26:54.159Z,77.89
2023-09-06T07:27:54.146Z,77.22
2023-09-06T07:28:54.166Z,74.95
2023-09-06T07:29:54.122Z,75.68
2023-09-06T07:30:54.168Z,76.95
2023-09-06T07:31:54.132Z,76.26
2023-09-06T07:32:54.132Z,77.39
2023-09-06T07:33:54.123Z,78.17
2023-09-06T07:34:54.096Z,79.19
2023-09-06T07:35:54.109Z,78.09
2023-09-06T07:36:54.074Z,77.73
2023-09-06T07:37:54.060Z,79.33
2023-09-06T07:38:54.048Z,77.95
2023-09-06T07:39:54.043Z,76.21
2023-09-06T07:40:54.066Z,72.95
2023-09-06T07:41:54.024Z,72.78
2023-09-06T07:42:54.044Z,71.35
2023-09-06T07:43:54.015Z,71.72
2023-09-06T07:44:54.034Z,71.84
2023-09-06T07:45:54.071Z,72.88
2023-09-06T07:46:54.094Z,72.88
2023-09-06T07:47:54.059Z,70.82
2023-09-06T07:48:54.369Z,70.62
2023-09-06T07:49:53.987Z,69.13
2023-09-06T07:50:54.008Z,68.50
2023-09-06T07:51:53.961Z,67.77
2023-09-06T07:52:53.971Z,66.94
2023-09-06T07:53:53.939Z,66.09
2023-09-06T07:54:53.958Z,66.49
2023-09-06T07:55:53.939Z,65.53
2023-09-06T07:56:53.911Z,65.43
2023-09-06T07:57:53.905Z,64.94
2023-09-06T07:58:53.909Z,63.98
2023-09-06T07:59:53.917Z,64.08
2023-09-06T08:01:06.148Z,63.56
2023-09-06T08:01:55.925Z,63.36
2023-09-06T08:02:53.922Z,64.51
2023-09-06T08:03:53.964Z,64.08
2023-09-06T08:04:54.097Z,64.11
2023-09-06T08:05:53.920Z,63.89
2023-09-06T08:06:54.045Z,63.98
2023-09-06T08:07:53.839Z,64.38
2023-09-06T08:08:53.926Z,64.61
2023-09-06T08:09:53.863Z,63.92
2023-09-06T08:10:53.818Z,62.90
2023-09-06T08:11:53.830Z,62.60
2023-09-06T08:12:53.807Z,62.77
2023-09-06T08:13:53.882Z,61.24
2023-09-06T08:14:53.864Z,61.21
2023-09-06T08:15:53.796Z,59.89
2023-09-06T08:16:53.844Z,61.40
2023-09-06T08:17:53.904Z,62.55
2023-09-06T08:18:53.837Z,62.15
2023-09-06T08:19:53.768Z,62.15
2023-09-06T08:20:53.831Z,62.25
2023-09-06T08:21:53.752Z,61.63
2023-09-06T08:22:53.774Z,61.60
2023-09-06T08:23:53.759Z,62.02
2023-09-06T08:24:53.740Z,61.50
2023-09-06T08:25:53.728Z,62.65
2023-09-06T08:26:53.733Z,63.43
2023-09-06T08:27:53.742Z,63.49
2023-09-06T08:28:53.698Z,62.97
2023-09-06T08:29:54.799Z,63.63
2023-09-06T08:30:53.781Z,62.32
2023-09-06T08:31:53.760Z,61.40
2023-09-06T08:32:53.754Z,61.21
2023-09-06T08:33:53.809Z,62.41
2023-09-06T08:34:53.672Z,62.12
2023-09-06T08:35:53.666Z,62.38
2023-09-06T08:36:53.680Z,62.68
2023-09-06T08:37:53.675Z,63.01
2023-09-06T08:38:53.646Z,62.52
2023-09-06T08:39:53.767Z,63.34
2023-09-06T08:40:53.639Z,62.55
2023-09-06T08:41:53.688Z,62.15
2023-09-06T08:42:53.636Z,62.02
2023-09-06T08:43:53.618Z,61.57
2023-09-06T08:44:53.615Z,60.95
2023-09-06T08:45:54.011Z,61.64
2023-09-06T08:46:53.749Z,61.38
2023-09-06T08:47:53.694Z,61.03
2023-09-06T08:48:53.700Z,59.92
2023-09-06T08:49:53.588Z,59.20
2023-09-06T08:50:56.173Z,57.77
2023-09-06T08:51:54.603Z,57.50
2023-09-06T08:52:53.561Z,58.48
2023-09-06T08:53:53.569Z,58.71
2023-09-06T08:54:53.622Z,58.74
2023-09-06T08:55:53.574Z,58.39
2023-09-06T08:56:53.569Z,57.60
2023-09-06T08:57:53.545Z,57.95
2023-09-06T08:58:53.530Z,59.03
2023-09-06T08:59:53.523Z,58.97
2023-09-06T09:00:53.630Z,57.38
2023-09-06T09:01:53.548Z,58.94
2023-09-06T09:02:53.667Z,58.96
2023-09-06T09:03:53.677Z,58.30
2023-09-06T09:05:00.141Z,58.80
2023-09-06T09:05:54.517Z,58.76
2023-09-06T09:06:53.517Z,57.53
2023-09-06T09:07:53.478Z,58.12
2023-09-06T09:08:53.470Z,57.26
2023-09-06T09:09:53.553Z,58.09
2023-09-06T09:10:53.488Z,57.40
2023-09-06T09:11:53.456Z,58.02
2023-09-06T09:12:53.575Z,57.53
2023-09-06T09:13:53.441Z,56.94
2023-09-06T09:14:53.461Z,56.72
2023-09-06T09:15:53.528Z,55.71
2023-09-06T09:16:53.458Z,55.74
2023-09-06T09:18:00.953Z,56.38
2023-09-06T09:18:55.422Z,56.18
2023-09-06T09:19:53.435Z,56.38
2023-09-06T09:20:53.408Z,56.97
2023-09-06T09:21:53.394Z,57.91
2023-09-06T09:22:53.414Z,55.43
2023-09-06T09:23:53.407Z,54.14
2023-09-06T09:24:53.426Z,54.52
2023-09-06T09:25:53.368Z,54.32
2023-09-06T09:26:53.371Z,54.58
2023-09-06T09:27:53.421Z,54.07
2023-09-06T09:28:53.384Z,52.89
2023-09-06T09:29:53.338Z,53.26
2023-09-06T09:30:53.387Z,54.17
2023-09-06T09:31:53.333Z,54.66
2023-09-06T09:32:53.366Z,55.44
2023-09-06T09:33:53.388Z,54.95
2023-09-06T09:34:53.317Z,55.60
2023-09-06T09:35:53.323Z,56.95
2023-09-06T09:36:53.338Z,59.34
2023-09-06T09:37:53.299Z,61.18
2023-09-06T09:38:53.309Z,59.17
2023-09-06T09:39:53.291Z,57.54
2023-09-06T09:40:53.979Z,56.93
2023-09-06T09:41:59.565Z,56.43
2023-09-06T09:42:55.283Z,57.05
2023-09-06T09:43:53.283Z,58.83
2023-09-06T09:44:53.253Z,57.77
2023-09-06T09:45:53.289Z,57.67
2023-09-06T09:46:53.255Z,58.36
2023-09-06T09:47:54.298Z,59.47
2023-09-06T09:48:54.220Z,59.11
2023-09-06T09:49:53.257Z,58.59
2023-09-06T09:50:53.213Z,58.09
2023-09-06T09:51:53.209Z,58.65
2023-09-06T09:52:53.213Z,58.14
2023-09-06T09:53:53.194Z,61.08
2023-09-06T09:54:53.229Z,61.60
2023-09-06T09:55:53.179Z,61.46
2023-09-06T09:56:53.201Z,61.36
2023-09-06T09:57:53.218Z,61.66
2023-09-06T09:58:53.157Z,60.44
2023-09-06T09:59:53.228Z,60.84
2023-09-06T10:00:53.177Z,61.26
2023-09-06T10:01:53.220Z,61.46
2023-09-06T10:02:53.277Z,60.08
2023-09-06T10:03:53.160Z,61.16
2023-09-06T10:04:53.208Z,63.46
2023-09-06T10:05:53.117Z,61.65
2023-09-06T10:06:53.126Z,61.78
2023-09-06T10:07:53.091Z,62.43
2023-09-06T10:08:53.093Z,64.70
2023-09-06T10:09:53.113Z,65.89
2023-09-06T10:10:53.071Z,64.74
2023-09-06T10:11:53.093Z,62.76
2023-09-06T10:12:53.088Z,64.77
2023-09-06T10:13:53.893Z,64.60
2023-09-06T10:14:53.050Z,64.67
2023-09-06T10:15:53.125Z,66.35
2023-09-06T10:16:53.089Z,61.60
2023-09-06T10:17:53.101Z,63.45
2023-09-06T10:18:53.111Z,61.96
2023-09-06T10:19:54.862Z,60.75
2023-09-06T10:20:54.044Z,60.25
2023-09-06T10:21:53.001Z,61.34
2023-09-06T10:22:53.018Z,60.45
2023-09-06T10:23:52.989Z,61.54
2023-09-06T10:24:53.021Z,63.52
2023-09-06T10:25:52.990Z,61.21
2023-09-06T10:26:52.957Z,61.85
2023-09-06T10:27:52.974Z,61.45
2023-09-06T10:28:52.945Z,59.97
2023-09-06T10:30:03.529Z,58.59
2023-09-06T10:30:55.010Z,60.76
2023-09-06T10:31:52.991Z,62.37
2023-09-06T10:32:52.957Z,63.16
2023-09-06T10:33:52.909Z,62.27
2023-09-06T10:34:52.927Z,61.98
2023-09-06T10:35:52.944Z,63.72
2023-09-06T10:36:52.977Z,64.51
2023-09-06T10:37:52.870Z,61.29
2023-09-06T10:38:52.953Z,57.92
2023-09-06T10:39:52.929Z,57.56
2023-09-06T10:40:52.872Z,61.41
2023-09-06T10:41:52.847Z,59.33
2023-09-06T10:42:52.845Z,57.16
2023-09-06T10:43:52.817Z,58.64
2023-09-06T10:44:53.868Z,56.54
2023-09-06T10:45:52.873Z,58.51
2023-09-06T10:46:52.950Z,59.41
2023-09-06T10:47:52.857Z,60.42
2023-09-06T10:48:52.854Z,60.52
2023-09-06T10:49:52.815Z,60.32
2023-09-06T10:50:52.774Z,58.81
2023-09-06T10:51:52.799Z,59.70
2023-09-06T10:52:52.782Z,59.41
2023-09-06T10:53:52.782Z,58.22
2023-09-06T10:54:52.769Z,58.72
2023-09-06T10:55:52.785Z,61.29
2023-09-06T10:56:52.745Z,58.74
2023-09-06T10:57:52.730Z,61.02
2023-09-06T10:58:52.743Z,58.74
2023-09-06T10:59:52.733Z,61.41
2023-09-06T11:00:52.847Z,61.80
2023-09-06T11:01:56.419Z,58.51
2023-09-06T11:02:53.848Z,61.08
2023-09-06T11:03:52.777Z,60.30
2023-09-06T11:04:52.686Z,58.81
2023-09-06T11:05:52.679Z,57.92
2023-09-06T11:06:52.760Z,56.81
2023-09-06T11:07:52.730Z,57.79
2023-09-06T11:08:52.659Z,59.28
2023-09-06T11:09:52.666Z,59.87
2023-09-06T11:10:52.635Z,60.99
2023-09-06T11:11:52.625Z,61.65
2023-09-06T11:12:52.673Z,61.55
2023-09-06T11:13:52.617Z,58.98
2023-09-06T11:14:52.601Z,60.00
2023-09-06T11:15:52.646Z,61.05
2023-09-06T11:16:52.589Z,61.18
2023-09-06T11:17:52.685Z,60.00
2023-09-06T11:18:52.565Z,59.41
2023-09-06T11:19:52.571Z,57.53
2023-09-06T11:20:52.610Z,58.59
2023-09-06T11:21:52.578Z,59.90
2023-09-06T11:22:52.564Z,61.38
2023-09-06T11:23:52.531Z,60.17
2023-09-06T11:24:52.546Z,58.88
2023-09-06T11:25:52.521Z,60.96
2023-09-06T11:26:52.532Z,59.47
2023-09-06T11:27:52.514Z,60.43
2023-09-06T11:28:52.535Z,59.61
2023-09-06T11:29:52.492Z,57.18
2023-09-06T11:30:52.483Z,57.47
2023-09-06T11:31:52.501Z,56.85
2023-09-06T11:32:52.532Z,57.57
2023-09-06T11:33:52.473Z,59.05
2023-09-06T11:34:52.452Z,58.14
2023-09-06T11:35:52.459Z,61.88
2023-09-06T11:36:52.466Z,61.19
2023-09-06T11:37:52.426Z,59.71
2023-09-06T11:38:52.419Z,62.28
2023-09-06T11:39:52.427Z,59.22
2023-09-06T11:40:52.416Z,57.81
2023-09-06T11:41:52.410Z,60.11
2023-09-06T11:43:25.325Z,62.18
2023-09-06T11:43:52.378Z,60.11
2023-09-06T11:44:52.365Z,60.21
2023-09-06T11:45:52.416Z,59.22
2023-09-06T11:46:52.433Z,57.54
2023-09-06T11:47:52.389Z,58.23
2023-09-06T11:48:52.461Z,58.33
2023-09-06T11:49:52.377Z,60.18
2023-09-06T11:50:52.353Z,57.74
2023-09-06T11:51:52.311Z,59.61
2023-09-06T11:52:58.528Z,61.19
2023-09-06T11:53:54.297Z,59.22
2023-09-06T11:54:52.314Z,57.84
2023-09-06T11:55:52.310Z,58.43
2023-09-06T11:56:52.411Z,58.73
2023-09-06T11:57:52.284Z,58.53
2023-09-06T11:58:52.244Z,61.88
2023-09-06T11:59:52.267Z,60.47
2023-09-06T12:00:52.697Z,58.40
2023-09-06T12:01:52.308Z,58.63
2023-09-06T12:02:52.287Z,61.66
2023-09-06T12:03:52.341Z,60.18
2023-09-06T12:04:52.225Z,60.28
2023-09-06T12:05:52.263Z,60.47
2023-09-06T12:06:52.302Z,58.40
2023-09-06T12:07:52.182Z,59.78
2023-09-06T12:08:52.225Z,59.78
2023-09-06T12:09:52.191Z,61.85
2023-09-06T12:10:52.157Z,59.78
2023-09-06T12:11:52.180Z,63.53
2023-09-06T12:12:52.143Z,60.28
2023-09-06T12:13:52.168Z,60.18
2023-09-06T12:14:52.183Z,59.98
2023-09-06T12:15:52.137Z,59.29
2023-09-06T12:16:52.224Z,57.51
2023-09-06T12:17:52.171Z,59.78
2023-09-06T12:18:52.189Z,60.28
2023-09-06T12:19:52.088Z,59.98
2023-09-06T12:20:52.115Z,62.84
2023-09-06T12:21:52.086Z,61.04
2023-09-06T12:22:52.070Z,59.59
2023-09-06T12:23:52.107Z,58.57
2023-09-06T12:24:52.056Z,59.66
2023-09-06T12:25:52.043Z,61.24
2023-09-06T12:26:52.070Z,57.91
2023-09-06T12:27:52.058Z,61.04
2023-09-06T12:28:52.044Z,59.56
2023-09-06T12:29:52.064Z,60.08
2023-09-06T12:30:52.121Z,59.09
2023-09-06T12:31:52.000Z,58.60
2023-09-06T12:32:52.048Z,59.69
2023-09-06T12:33:52.024Z,60.28
2023-09-06T12:34:51.977Z,61.16
2023-09-06T12:35:51.982Z,58.70
2023-09-06T12:36:51.965Z,59.88
2023-09-06T12:37:51.979Z,60.77
2023-09-06T12:38:51.953Z,57.51
2023-09-06T12:39:51.937Z,61.26
2023-09-06T12:40:51.934Z,59.78
2023-09-06T12:41:51.972Z,57.71
2023-09-06T12:42:51.953Z,59.00
2023-09-06T12:43:51.914Z,61.63
2023-09-06T12:44:51.977Z,60.05
2023-09-06T12:45:51.892Z,61.13
2023-09-06T12:46:51.946Z,59.26
2023-09-06T12:47:51.989Z,60.18
2023-09-06T12:48:52.965Z,60.87
2023-09-06T12:49:51.868Z,60.15
2023-09-06T12:50:52.412Z,63.21
2023-09-06T12:51:51.860Z,61.33
2023-09-06T12:52:51.864Z,61.43
2023-09-06T12:53:51.873Z,61.63